createdAt,value
2022-09-14T00:01:35.000Z,16.46
2022-09-14T00:04:00.783Z,16.46
2022-09-14T00:06:24.043Z,16.36
2022-09-14T00:08:51.397Z,16.38
2022-09-14T00:11:15.229Z,16.36
2022-09-14T00:13:39.888Z,16.29
2022-09-14T00:16:08.166Z,16.26
2022-09-14T00:18:31.714Z,16.26
2022-09-14T00:20:59.647Z,16.19
2022-09-14T00:23:22.142Z,16.15
2022-09-14T00:25:44.718Z,16.14
2022-09-14T00:28:07.269Z,16.15
2022-09-14T00:30:29.836Z,16.02
2022-09-14T00:32:52.404Z,16.08
2022-09-14T00:35:14.945Z,16.01
2022-09-14T00:37:37.639Z,15.97
2022-09-14T00:40:00.267Z,15.91
2022-09-14T00:42:22.915Z,15.81
2022-09-14T00:44:48.191Z,15.86
2022-09-14T00:47:12.622Z,15.86
2022-09-14T00:49:38.476Z,15.87
2022-09-14T00:52:09.840Z,15.86
2022-09-14T00:54:33.444Z,15.89
2022-09-14T00:56:59.350Z,15.71
2022-09-14T00:59:29.104Z,15.79
2022-09-14T01:01:52.160Z,15.81
2022-09-14T01:04:14.876Z,15.76
2022-09-14T01:06:48.240Z,15.73
2022-09-14T01:09:22.588Z,15.84
2022-09-14T01:12:03.253Z,15.79
2022-09-14T01:14:51.818Z,15.67
2022-09-14T01:17:23.112Z,15.74
2022-09-14T01:20:05.604Z,15.76
2022-09-14T01:22:40.284Z,15.47
2022-09-14T01:25:32.236Z,15.45
2022-09-14T01:28:00.326Z,15.47
2022-09-14T01:30:23.863Z,15.33
2022-09-14T01:32:52.646Z,15.47
2022-09-14T01:35:37.679Z,15.43
2022-09-14T01:38:08.624Z,15.26
2022-09-14T01:40:39.424Z,15.24
2022-09-14T01:43:10.821Z,15.09
2022-09-14T01:45:34.867Z,15.11
2022-09-14T01:48:03.163Z,15.08
2022-09-14T01:50:31.855Z,14.94
2022-09-14T01:53:23.686Z,14.85
2022-09-14T01:56:07.998Z,14.83
2022-09-14T01:58:40.079Z,14.78
2022-09-14T02:01:05.958Z,14.70
2022-09-14T02:03:43.927Z,14.68
2022-09-14T02:06:14.251Z,14.66
2022-09-14T02:08:37.475Z,14.67
2022-09-14T02:11:00.703Z,14.70
2022-09-14T02:13:24.137Z,14.64
2022-09-14T02:15:46.777Z,14.68
2022-09-14T02:18:09.264Z,14.66
2022-09-14T02:20:39.413Z,14.68
2022-09-14T02:23:02.099Z,14.73
2022-09-14T02:25:24.910Z,14.73
2022-09-14T02:27:49.101Z,14.84
2022-09-14T02:30:11.939Z,14.89
2022-09-14T02:32:52.212Z,14.92
2022-09-14T02:35:27.771Z,14.83
2022-09-14T02:38:16.662Z,14.73
2022-09-14T02:40:46.642Z,14.70
2022-09-14T02:43:09.202Z,14.85
2022-09-14T02:45:31.946Z,14.99
2022-09-14T02:48:18.900Z,14.99
2022-09-14T02:50:57.616Z,15.05
2022-09-14T02:53:43.614Z,15.08
2022-09-14T02:56:09.804Z,15.16
2022-09-14T02:58:37.500Z,15.21
2022-09-14T03:01:00.034Z,15.14
2022-09-14T03:03:22.544Z,15.12
2022-09-14T03:05:45.291Z,15.15
2022-09-14T03:08:10.339Z,15.15
2022-09-14T03:10:33.638Z,15.24
2022-09-14T03:12:56.238Z,15.26
2022-09-14T03:15:18.990Z,15.28
2022-09-14T03:17:46.135Z,15.28
2022-09-14T03:20:09.157Z,15.24
2022-09-14T03:22:32.962Z,15.15
2022-09-14T03:24:55.548Z,15.18
2022-09-14T03:27:18.147Z,15.11
2022-09-14T03:29:40.918Z,15.06
2022-09-14T03:32:03.508Z,15.09
2022-09-14T03:34:26.194Z,15.11
2022-09-14T03:36:48.768Z,15.06
2022-09-14T03:39:12.512Z,15.08
2022-09-14T03:41:35.013Z,15.12
2022-09-14T03:43:57.566Z,15.12
2022-09-14T03:46:23.507Z,15.11
2022-09-14T03:48:46.226Z,15.12
2022-09-14T03:51:10.283Z,15.05
2022-09-14T03:53:33.676Z,15.05
2022-09-14T03:55:56.240Z,14.98
2022-09-14T03:58:19.103Z,15.01
2022-09-14T04:00:41.672Z,15.02
2022-09-14T04:03:04.463Z,15.09
2022-09-14T04:05:26.999Z,15.06
2022-09-14T04:07:49.589Z,15.08
2022-09-14T04:10:12.098Z,15.01
2022-09-14T04:12:38.597Z,15.02
2022-09-14T04:15:01.020Z,15.09
2022-09-14T04:17:25.135Z,15.14
2022-09-14T04:19:47.697Z,15.16
2022-09-14T04:22:10.309Z,15.22
2022-09-14T04:24:32.763Z,15.16
2022-09-14T04:26:55.353Z,15.04
2022-09-14T04:29:18.109Z,15.04
2022-09-14T04:31:41.171Z,15.11
2022-09-14T04:34:03.758Z,15.22
2022-09-14T04:36:29.543Z,15.22
2022-09-14T04:38:54.258Z,15.19
2022-09-14T04:41:20.560Z,15.26
2022-09-14T04:43:44.677Z,15.32
2022-09-14T04:46:10.863Z,15.35
2022-09-14T04:48:35.300Z,15.39
2022-09-14T04:51:07.739Z,15.46
2022-09-14T04:53:30.553Z,15.39
2022-09-14T04:55:53.083Z,15.32
2022-09-14T04:58:15.916Z,15.46
2022-09-14T05:00:39.639Z,15.29
2022-09-14T05:03:03.751Z,15.26
2022-09-14T05:05:26.453Z,15.31
2022-09-14T05:07:49.195Z,15.36
2022-09-14T05:10:12.051Z,15.35
2022-09-14T05:12:34.576Z,15.45
2022-09-14T05:14:57.164Z,15.52
2022-09-14T05:17:19.744Z,15.32
2022-09-14T05:19:42.382Z,15.38
2022-09-14T05:22:04.926Z,15.38
2022-09-14T05:24:27.721Z,15.50
2022-09-14T05:26:52.533Z,15.54
2022-09-14T05:29:17.355Z,15.60
2022-09-14T05:31:40.401Z,15.49
2022-09-14T05:34:03.131Z,15.57
2022-09-14T05:36:26.218Z,15.60
2022-09-14T05:38:49.067Z,15.76
2022-09-14T05:41:13.985Z,15.87
2022-09-14T05:43:37.223Z,15.89
2022-09-14T05:46:04.795Z,16.01
2022-09-14T05:48:27.884Z,16.12
2022-09-14T05:50:58.593Z,16.19
2022-09-14T05:53:21.401Z,16.24
2022-09-14T05:55:44.169Z,16.25
2022-09-14T05:58:07.031Z,16.22
2022-09-14T06:00:29.925Z,16.25
2022-09-14T06:02:55.210Z,16.36
2022-09-14T06:05:18.694Z,16.11
2022-09-14T06:07:41.873Z,16.26
2022-09-14T06:10:04.733Z,16.18
2022-09-14T06:12:28.116Z,16.41
2022-09-14T06:14:50.756Z,16.51
2022-09-14T06:17:14.842Z,16.59
2022-09-14T06:19:38.491Z,16.67
2022-09-14T06:22:01.114Z,16.83
2022-09-14T06:24:23.756Z,16.91
2022-09-14T06:26:46.332Z,17.15
2022-09-14T06:29:09.093Z,17.18
2022-09-14T06:31:31.847Z,17.11
2022-09-14T06:33:54.967Z,17.04
2022-09-14T06:36:19.949Z,17.35
2022-09-14T06:38:42.919Z,17.44
2022-09-14T06:41:09.049Z,17.71
2022-09-14T06:43:33.914Z,17.79
2022-09-14T06:46:08.352Z,17.62
2022-09-14T06:48:34.634Z,17.62
2022-09-14T06:50:57.469Z,17.45
2022-09-14T06:53:20.808Z,17.21
2022-09-14T06:56:23.085Z,16.79
2022-09-14T06:58:47.911Z,16.58
2022-09-14T07:01:14.455Z,16.58
2022-09-14T07:03:38.777Z,16.58
2022-09-14T07:06:06.546Z,16.66
2022-09-14T07:08:29.512Z,16.91
2022-09-14T07:10:58.941Z,17.03
2022-09-14T07:13:21.774Z,17.27
2022-09-14T07:16:05.361Z,17.32
2022-09-14T07:18:32.915Z,17.73
2022-09-14T07:20:55.937Z,17.41
2022-09-14T07:23:18.623Z,17.55
2022-09-14T07:25:42.387Z,17.86
2022-09-14T07:28:04.955Z,17.91
2022-09-14T07:30:28.325Z,18.03
2022-09-14T07:32:51.154Z,18.26
2022-09-14T07:35:13.740Z,18.58
2022-09-14T07:37:36.501Z,18.33
2022-09-14T07:39:59.200Z,18.41
2022-09-14T07:42:21.879Z,18.49
2022-09-14T07:44:44.713Z,18.69
2022-09-14T07:47:07.522Z,18.64
2022-09-14T07:49:30.567Z,18.41
2022-09-14T07:51:54.119Z,18.27
2022-09-14T07:54:19.830Z,17.94
2022-09-14T07:56:43.807Z,17.86
2022-09-14T07:59:31.336Z,17.66
2022-09-14T08:01:50.397Z,17.66
2022-09-14T08:04:13.282Z,17.79
2022-09-14T08:06:37.248Z,17.78
2022-09-14T08:08:59.874Z,17.80
2022-09-14T08:11:25.198Z,17.89
2022-09-14T08:13:56.865Z,18.11
2022-09-14T08:16:21.188Z,18.30
2022-09-14T08:18:43.868Z,18.57
2022-09-14T08:21:09.689Z,18.59
2022-09-14T08:23:33.117Z,18.95
2022-09-14T08:25:55.688Z,19.31
2022-09-14T08:28:18.168Z,19.07
2022-09-14T08:30:41.443Z,19.00
2022-09-14T08:33:04.075Z,19.27
2022-09-14T08:35:53.656Z,19.51
2022-09-14T08:38:09.718Z,19.64
2022-09-14T08:40:33.396Z,19.74
2022-09-14T08:42:59.224Z,20.04
2022-09-14T08:45:24.183Z,20.17
2022-09-14T08:47:48.702Z,20.25
2022-09-14T08:50:20.286Z,20.60
2022-09-14T08:52:53.683Z,20.84
2022-09-14T08:55:41.550Z,20.87
2022-09-14T08:58:10.124Z,20.83
2022-09-14T09:00:55.506Z,20.70
2022-09-14T09:03:23.949Z,20.83
2022-09-14T09:06:01.122Z,21.05
2022-09-14T09:08:39.457Z,21.28
2022-09-14T09:11:05.707Z,21.22
2022-09-14T09:13:35.826Z,21.28
2022-09-14T09:16:02.946Z,21.80
2022-09-14T09:18:44.134Z,22.15
2022-09-14T09:21:20.236Z,22.18
2022-09-14T09:23:44.192Z,22.12
2022-09-14T09:26:09.729Z,22.51
2022-09-14T09:28:34.048Z,22.74
2022-09-14T09:31:05.274Z,22.67
2022-09-14T09:33:50.597Z,22.86
2022-09-14T09:36:18.578Z,22.46
2022-09-14T09:38:41.966Z,22.72
2022-09-14T09:41:13.251Z,23.01
2022-09-14T09:43:59.070Z,23.54
2022-09-14T09:46:22.508Z,23.73
2022-09-14T09:48:45.889Z,23.85
2022-09-14T09:51:19.808Z,24.20
2022-09-14T09:54:09.899Z,24.44
2022-09-14T09:56:36.562Z,24.64
2022-09-14T09:58:59.434Z,24.93
2022-09-14T10:01:31.388Z,25.08
2022-09-14T10:04:09.201Z,25.23
2022-09-14T10:06:32.916Z,25.23
2022-09-14T10:08:57.528Z,25.13
2022-09-14T10:11:38.019Z,25.03
2022-09-14T10:14:01.706Z,25.19
2022-09-14T10:16:30.760Z,25.03
2022-09-14T10:18:54.291Z,24.60
2022-09-14T10:21:22.245Z,23.77
2022-09-14T10:23:45.303Z,23.25
2022-09-14T10:26:10.604Z,23.28
2022-09-14T10:28:34.154Z,23.77
2022-09-14T10:31:08.707Z,23.66
2022-09-14T10:33:32.591Z,23.66
2022-09-14T10:36:02.182Z,23.69
2022-09-14T10:39:07.825Z,23.29
2022-09-14T10:42:00.485Z,23.12
2022-09-14T10:44:44.722Z,23.06
2022-09-14T10:47:10.252Z,23.06
2022-09-14T10:49:41.676Z,23.12
2022-09-14T10:52:20.344Z,23.35
2022-09-14T10:55:10.565Z,23.28
2022-09-14T10:57:41.037Z,23.44
2022-09-14T11:00:13.273Z,23.76
2022-09-14T11:02:54.093Z,24.00
2022-09-14T11:05:29.568Z,24.09
2022-09-14T11:08:04.948Z,24.12
2022-09-14T11:10:56.451Z,24.04
2022-09-14T11:13:51.512Z,23.82
2022-09-14T11:17:02.056Z,24.23
2022-09-14T11:19:53.144Z,24.17
2022-09-14T11:22:36.878Z,24.18
2022-09-14T11:25:06.357Z,24.03
2022-09-14T11:27:52.123Z,23.92
2022-09-14T11:30:46.915Z,23.85
2022-09-14T11:33:31.546Z,23.79
2022-09-14T11:36:01.961Z,23.61
2022-09-14T11:38:31.004Z,23.68
2022-09-14T11:40:57.539Z,23.94
2022-09-14T11:43:43.966Z,24.38
2022-09-14T11:46:11.856Z,24.67
2022-09-14T11:48:43.370Z,24.51
2022-09-14T11:51:08.531Z,24.24
2022-09-14T11:53:32.781Z,24.69
2022-09-14T11:55:55.676Z,24.82
2022-09-14T11:58:21.926Z,24.93
2022-09-14T12:01:05.175Z,25.19
2022-09-14T12:03:52.263Z,24.88
2022-09-14T12:06:30.138Z,24.85
2022-09-14T12:08:52.938Z,25.06
2022-09-14T12:11:17.194Z,25.38
2022-09-14T12:13:40.045Z,25.20
2022-09-14T12:16:09.791Z,25.33
2022-09-14T12:18:35.990Z,25.08
2022-09-14T12:21:18.377Z,24.93
2022-09-14T12:23:42.035Z,25.34
2022-09-14T12:26:10.772Z,25.47
2022-09-14T12:28:36.203Z,25.27
2022-09-14T12:30:58.748Z,25.46
2022-09-14T12:33:36.299Z,25.73
2022-09-14T12:36:20.866Z,25.81
2022-09-14T12:39:19.017Z,26.03
2022-09-14T12:41:41.567Z,26.22
2022-09-14T12:44:25.136Z,26.20
2022-09-14T12:46:47.990Z,26.35
2022-09-14T12:49:37.141Z,25.85
2022-09-14T12:52:08.943Z,26.15
2022-09-14T12:54:34.094Z,26.22
2022-09-14T12:57:15.486Z,25.63
2022-09-14T13:00:13.587Z,25.28
2022-09-14T13:03:00.651Z,25.38
2022-09-14T13:05:27.583Z,25.54
2022-09-14T13:07:51.108Z,25.77
2022-09-14T13:10:39.937Z,25.92
2022-09-14T13:13:08.578Z,26.06
2022-09-14T13:15:36.885Z,26.12
2022-09-14T13:18:01.015Z,26.16
2022-09-14T13:20:23.725Z,26.26
2022-09-14T13:22:46.328Z,26.29
2022-09-14T13:25:36.269Z,26.43
2022-09-14T13:28:14.195Z,26.41
2022-09-14T13:30:36.906Z,26.28
2022-09-14T13:33:00.245Z,26.30
2022-09-14T13:35:30.145Z,26.18
2022-09-14T13:37:53.602Z,26.19
2022-09-14T13:40:17.074Z,26.16
2022-09-14T13:42:41.282Z,26.19
2022-09-14T13:45:05.879Z,26.22
2022-09-14T13:47:29.038Z,26.25
2022-09-14T13:49:54.458Z,26.41
2022-09-14T13:52:25.878Z,26.49
2022-09-14T13:55:28.338Z,26.43
2022-09-14T13:58:09.254Z,26.33
2022-09-14T14:00:33.355Z,26.03
2022-09-14T14:03:02.176Z,26.22
2022-09-14T14:05:31.431Z,26.33
2022-09-14T14:07:56.599Z,26.47
2022-09-14T14:10:30.127Z,26.46
2022-09-14T14:12:52.761Z,26.70
2022-09-14T14:15:18.269Z,26.90
2022-09-14T14:17:41.573Z,27.08
2022-09-14T14:20:32.612Z,26.92
2022-09-14T14:23:13.197Z,27.01
2022-09-14T14:25:43.373Z,27.02
2022-09-14T14:28:34.365Z,26.97
2022-09-14T14:31:07.713Z,26.81
2022-09-14T14:33:31.284Z,26.98
2022-09-14T14:35:56.469Z,27.04
2022-09-14T14:38:19.100Z,26.97
2022-09-14T14:40:42.996Z,27.05
2022-09-14T14:43:07.653Z,27.12
2022-09-14T14:45:35.406Z,26.92
2022-09-14T14:48:00.013Z,26.83
2022-09-14T14:50:26.184Z,26.77
2022-09-14T14:52:50.282Z,26.32
2022-09-14T14:55:13.003Z,26.18
2022-09-14T14:57:35.749Z,26.20
2022-09-14T14:59:58.512Z,26.05
2022-09-14T15:02:21.331Z,25.89
2022-09-14T15:04:43.820Z,25.80
2022-09-14T15:07:06.562Z,25.64
2022-09-14T15:09:30.140Z,25.77
2022-09-14T15:11:54.732Z,25.82
2022-09-14T15:14:20.198Z,25.70
2022-09-14T15:16:44.387Z,25.82
2022-09-14T15:19:07.327Z,25.64
2022-09-14T15:21:30.152Z,25.75
2022-09-14T15:23:52.688Z,25.64
2022-09-14T15:26:15.395Z,25.67
2022-09-14T15:28:38.803Z,25.60
2022-09-14T15:31:04.860Z,25.53
2022-09-14T15:33:29.637Z,25.48
2022-09-14T15:35:56.711Z,25.37
2022-09-14T15:38:19.183Z,25.27
2022-09-14T15:40:41.871Z,25.17
2022-09-14T15:43:04.355Z,25.06
2022-09-14T15:45:26.857Z,24.50
2022-09-14T15:47:49.296Z,24.31
2022-09-14T15:50:11.886Z,24.21
2022-09-14T15:52:36.213Z,24.31
2022-09-14T15:54:58.895Z,24.18
2022-09-14T15:57:21.524Z,23.94
2022-09-14T15:59:44.130Z,23.77
2022-09-14T16:02:07.205Z,23.83
2022-09-14T16:04:36.514Z,23.77
2022-09-14T16:06:58.958Z,24.00
2022-09-14T16:09:22.483Z,24.17
2022-09-14T16:11:44.986Z,24.24
2022-09-14T16:14:09.419Z,24.28
2022-09-14T16:16:32.631Z,24.25
2022-09-14T16:18:55.219Z,24.20
2022-09-14T16:21:23.622Z,24.18
2022-09-14T16:23:50.137Z,24.14
2022-09-14T16:26:22.171Z,24.04
2022-09-14T16:28:47.981Z,24.06
2022-09-14T16:31:16.338Z,23.87
2022-09-14T16:33:44.214Z,23.76
2022-09-14T16:36:09.480Z,23.72
2022-09-14T16:38:32.112Z,23.68
2022-09-14T16:40:59.568Z,23.58
2022-09-14T16:43:22.577Z,23.51
2022-09-14T16:45:45.328Z,23.47
2022-09-14T16:48:07.994Z,23.25
2022-09-14T16:50:30.585Z,23.20
2022-09-14T16:52:53.130Z,23.20
2022-09-14T16:55:15.793Z,23.14
2022-09-14T16:57:38.594Z,23.07
2022-09-14T17:00:01.402Z,22.93
2022-09-14T17:02:24.216Z,22.96
2022-09-14T17:04:46.888Z,22.80
2022-09-14T17:07:10.354Z,22.76
2022-09-14T17:09:33.116Z,22.72
2022-09-14T17:11:57.179Z,22.70
2022-09-14T17:14:22.643Z,22.64
2022-09-14T17:16:45.607Z,22.49
2022-09-14T17:19:08.393Z,22.34
2022-09-14T17:21:36.449Z,22.41
2022-09-14T17:23:59.375Z,22.38
2022-09-14T17:26:23.177Z,22.31
2022-09-14T17:28:49.410Z,22.29
2022-09-14T17:31:14.632Z,22.21
2022-09-14T17:33:37.226Z,21.90
2022-09-14T17:36:00.396Z,21.81
2022-09-14T17:38:26.556Z,21.86
2022-09-14T17:40:49.486Z,21.83
2022-09-14T17:43:12.338Z,21.69
2022-09-14T17:45:50.640Z,21.56
2022-09-14T17:48:13.278Z,21.57
2022-09-14T17:50:39.131Z,21.50
2022-09-14T17:53:01.697Z,21.42
2022-09-14T17:55:24.738Z,21.43
2022-09-14T17:58:28.616Z,21.40
2022-09-14T18:00:51.278Z,21.42
2022-09-14T18:03:13.892Z,21.33
2022-09-14T18:05:36.924Z,21.38
2022-09-14T18:07:59.554Z,21.47
2022-09-14T18:10:22.293Z,21.40
2022-09-14T18:12:46.186Z,21.40
2022-09-14T18:15:09.640Z,21.45
2022-09-14T18:17:32.344Z,21.40
2022-09-14T18:19:58.535Z,21.42
2022-09-14T18:22:21.268Z,21.30
2022-09-14T18:24:44.213Z,21.06
2022-09-14T18:27:06.814Z,20.94
2022-09-14T18:29:31.553Z,20.92
2022-09-14T18:31:54.332Z,20.95
2022-09-14T18:34:17.782Z,20.94
2022-09-14T18:36:40.360Z,20.90
2022-09-14T18:39:04.498Z,21.03
2022-09-14T18:41:29.685Z,20.99
2022-09-14T18:43:53.334Z,20.90
2022-09-14T18:46:18.025Z,20.84
2022-09-14T18:48:43.747Z,20.84
2022-09-14T18:51:06.713Z,20.81
2022-09-14T18:53:32.115Z,20.84
2022-09-14T18:55:54.768Z,20.85
2022-09-14T18:58:17.412Z,20.85
2022-09-14T19:00:45.674Z,20.75
2022-09-14T19:03:09.917Z,20.88
2022-09-14T19:05:33.889Z,20.91
2022-09-14T19:07:56.352Z,20.85
2022-09-14T19:10:19.398Z,20.61
2022-09-14T19:12:42.124Z,20.58
2022-09-14T19:15:05.117Z,20.51
2022-09-14T19:17:27.968Z,20.47
2022-09-14T19:19:50.448Z,20.44
2022-09-14T19:22:13.056Z,20.44
2022-09-14T19:24:35.633Z,20.46
2022-09-14T19:26:58.196Z,20.44
2022-09-14T19:29:23.388Z,20.36
2022-09-14T19:31:51.014Z,20.33
2022-09-14T19:34:13.563Z,20.29
2022-09-14T19:36:36.144Z,20.26
2022-09-14T19:39:01.864Z,20.22
2022-09-14T19:41:44.343Z,20.23
2022-09-14T19:44:26.740Z,20.30
2022-09-14T19:46:50.055Z,20.41
2022-09-14T19:49:21.751Z,20.41
2022-09-14T19:51:45.368Z,20.48
2022-09-14T19:54:09.243Z,20.64
2022-09-14T19:56:32.566Z,20.85
2022-09-14T19:58:57.896Z,20.90
2022-09-14T20:01:22.673Z,21.06
2022-09-14T20:03:46.255Z,21.21
2022-09-14T20:06:12.129Z,21.28
2022-09-14T20:08:36.265Z,21.43
2022-09-14T20:11:16.573Z,21.50
2022-09-14T20:13:41.866Z,21.64
2022-09-14T20:16:28.736Z,21.66
2022-09-14T20:18:52.883Z,21.80
2022-09-14T20:21:18.896Z,21.77
2022-09-14T20:23:57.972Z,21.80
2022-09-14T20:26:26.612Z,21.86
2022-09-14T20:28:49.896Z,21.81
2022-09-14T20:31:13.777Z,21.88
2022-09-14T20:33:37.212Z,21.88
2022-09-14T20:36:14.717Z,22.01
2022-09-14T20:38:42.669Z,22.02
2022-09-14T20:41:07.963Z,22.00
2022-09-14T20:43:32.377Z,21.98
2022-09-14T20:46:04.721Z,21.81
2022-09-14T20:48:27.990Z,21.86
2022-09-14T20:50:52.089Z,21.86
2022-09-14T20:53:14.710Z,21.80
2022-09-14T20:55:37.252Z,21.74
2022-09-14T20:57:59.909Z,21.67
2022-09-14T21:00:22.605Z,21.80
2022-09-14T21:02:50.705Z,21.83
2022-09-14T21:05:13.288Z,21.86
2022-09-14T21:07:35.906Z,21.90
2022-09-14T21:09:59.552Z,21.84
2022-09-14T21:12:22.397Z,21.90
2022-09-14T21:14:45.399Z,21.91
2022-09-14T21:17:08.131Z,21.94
2022-09-14T21:19:31.318Z,21.91
2022-09-14T21:21:54.309Z,21.98
2022-09-14T21:24:18.767Z,21.97
2022-09-14T21:26:42.950Z,21.88
2022-09-14T21:29:07.634Z,21.87
2022-09-14T21:31:30.421Z,21.90
2022-09-14T21:33:54.802Z,21.90
2022-09-14T21:36:30.735Z,21.83
2022-09-14T21:38:55.878Z,21.93
2022-09-14T21:41:19.476Z,21.80
2022-09-14T21:43:42.684Z,21.86
2022-09-14T21:46:06.252Z,21.87
2022-09-14T21:48:29.240Z,21.90
2022-09-14T21:51:01.619Z,21.97
2022-09-14T21:53:25.544Z,21.91
2022-09-14T21:55:49.361Z,21.90
2022-09-14T21:58:12.187Z,21.90
2022-09-14T22:00:35.206Z,21.83
2022-09-14T22:02:58.147Z,21.95
2022-09-14T22:05:21.215Z,21.93
2022-09-14T22:07:44.057Z,21.94
2022-09-14T22:10:08.104Z,22.04
2022-09-14T22:12:31.000Z,21.98
2022-09-14T22:14:53.483Z,21.94
2022-09-14T22:17:34.666Z,21.94
2022-09-14T22:20:00.660Z,21.93
2022-09-14T22:22:23.196Z,21.87
2022-09-14T22:24:45.737Z,21.90
2022-09-14T22:27:09.757Z,21.80
2022-09-14T22:29:32.894Z,21.80
2022-09-14T22:31:55.679Z,21.87
2022-09-14T22:34:18.640Z,21.91
2022-09-14T22:36:41.794Z,21.83
2022-09-14T22:39:05.241Z,21.80
2022-09-14T22:41:28.709Z,21.87
2022-09-14T22:43:52.308Z,21.81
2022-09-14T22:46:16.647Z,21.78
2022-09-14T22:48:40.111Z,21.76
2022-09-14T22:51:04.367Z,21.63
2022-09-14T22:53:28.697Z,21.70
2022-09-14T22:55:52.262Z,21.74
2022-09-14T22:58:17.265Z,21.81
2022-09-14T23:00:40.350Z,21.87
2022-09-14T23:03:03.196Z,21.76
2022-09-14T23:05:25.888Z,21.83
2022-09-14T23:07:48.935Z,21.91
2022-09-14T23:10:11.769Z,21.91
2022-09-14T23:12:34.503Z,21.83
2022-09-14T23:14:57.387Z,21.73
2022-09-14T23:17:20.147Z,21.69
2022-09-14T23:19:43.543Z,21.74
2022-09-14T23:22:06.758Z,21.66
2022-09-14T23:24:29.888Z,21.70
2022-09-14T23:26:53.063Z,21.61
2022-09-14T23:29:17.053Z,21.66
2022-09-14T23:31:39.980Z,21.54
2022-09-14T23:34:04.326Z,21.61
2022-09-14T23:36:28.825Z,21.64
2022-09-14T23:38:52.587Z,21.71
2022-09-14T23:41:17.280Z,21.64
2022-09-14T23:43:40.336Z,21.67
2022-09-14T23:46:03.706Z,21.63
2022-09-14T23:48:27.426Z,21.77
2022-09-14T23:51:00.984Z,21.78
2022-09-14T23:53:24.128Z,21.88
2022-09-14T23:55:46.855Z,21.95
2022-09-14T23:58:09.961Z,21.98
